sensor_id;sensor_type;location;lat;lon;timestamp;temperature;humidity
16929;DHT22;8581;47.334;11.190;2023-04-06T00:01:24;-2.00;99.90
16929;DHT22;8581;47.334;11.190;2023-04-06T00:03:56;-2.10;99.90
16929;DHT22;8581;47.334;11.190;2023-04-06T00:06:27;-2.10;99.90
16929;DHT22;8581;47.334;11.190;2023-04-06T00:08:59;-2.20;99.90
16929;DHT22;8581;47.334;11.190;2023-04-06T00:11:31;-2.10;99.90
16929;DHT22;8581;47.334;11.190;2023-04-06T00:14:02;-2.10;99.90
16929;DHT22;8581;47.334;11.190;2023-04-06T00:16:34;-2.20;99.90
16929;DHT22;8581;47.334;11.190;2023-04-06T00:19:06;-2.30;99.90
16929;DHT22;8581;47.334;11.190;2023-04-06T00:21:37;-2.40;99.90
16929;DHT22;8581;47.334;11.190;2023-04-06T00:24:11;-2.50;99.90
16929;DHT22;8581;47.334;11.190;2023-04-06T00:26:42;-2.40;99.90
16929;DHT22;8581;47.334;11.190;2023-04-06T00:29:14;-2.50;99.90
16929;DHT22;8581;47.334;11.190;2023-04-06T00:31:46;-2.60;99.90
16929;DHT22;8581;47.334;11.190;2023-04-06T00:34:17;-2.70;99.90
16929;DHT22;8581;47.334;11.190;2023-04-06T00:36:49;-2.70;99.90
16929;DHT22;8581;47.334;11.190;2023-04-06T00:39:21;-2.70;99.90
16929;DHT22;8581;47.334;11.190;2023-04-06T00:41:52;-2.60;99.90
16929;DHT22;8581;47.334;11.190;2023-04-06T00:44:24;-2.70;99.90
16929;DHT22;8581;47.334;11.190;2023-04-06T00:46:56;-2.80;99.90
16929;DHT22;8581;47.334;11.190;2023-04-06T00:49:27;-2.80;99.90
16929;DHT22;8581;47.334;11.190;2023-04-06T00:51:59;-2.90;99.90
16929;DHT22;8581;47.334;11.190;2023-04-06T00:54:31;-3.00;99.90
16929;DHT22;8581;47.334;11.190;2023-04-06T00:57:02;-3.00;99.90
16929;DHT22;8581;47.334;11.190;2023-04-06T00:59:34;-2.90;99.90
16929;DHT22;8581;47.334;11.190;2023-04-06T01:02:06;-3.00;99.90
16929;DHT22;8581;47.334;11.190;2023-04-06T01:04:37;-3.10;99.90
16929;DHT22;8581;47.334;11.190;2023-04-06T01:07:09;-3.10;99.90
16929;DHT22;8581;47.334;11.190;2023-04-06T01:09:41;-3.20;99.90
16929;DHT22;8581;47.334;11.190;2023-04-06T01:12:13;-3.10;99.90
16929;DHT22;8581;47.334;11.190;2023-04-06T01:14:45;-3.20;99.90
16929;DHT22;8581;47.334;11.190;2023-04-06T01:17:16;-3.10;99.90
16929;DHT22;8581;47.334;11.190;2023-04-06T01:19:48;-3.00;99.90
16929;DHT22;8581;47.334;11.190;2023-04-06T01:22:20;-2.90;99.90
16929;DHT22;8581;47.334;11.190;2023-04-06T01:24:52;-2.80;99.90
16929;DHT22;8581;47.334;11.190;2023-04-06T01:27:23;-2.60;99.90
16929;DHT22;8581;47.334;11.190;2023-04-06T01:29:55;-2.60;99.90
16929;DHT22;8581;47.334;11.190;2023-04-06T01:32:27;-2.60;99.90
16929;DHT22;8581;47.334;11.190;2023-04-06T01:34:58;-2.50;99.90
16929;DHT22;8581;47.334;11.190;2023-04-06T01:37:30;-2.30;99.90
16929;DHT22;8581;47.334;11.190;2023-04-06T01:40:02;-2.30;99.90
16929;DHT22;8581;47.334;11.190;2023-04-06T01:42:34;-2.20;99.90
16929;DHT22;8581;47.334;11.190;2023-04-06T01:45:06;-2.10;99.90
16929;DHT22;8581;47.334;11.190;2023-04-06T01:47:38;-2.00;99.90
16929;DHT22;8581;47.334;11.190;2023-04-06T01:50:10;-2.00;99.90
16929;DHT22;8581;47.334;11.190;2023-04-06T01:52:42;-2.00;99.90
16929;DHT22;8581;47.334;11.190;2023-04-06T01:55:13;-2.00;99.90
16929;DHT22;8581;47.334;11.190;2023-04-06T01:57:45;-1.90;99.90
16929;DHT22;8581;47.334;11.190;2023-04-06T02:00:17;-1.90;99.90
16929;DHT22;8581;47.334;11.190;2023-04-06T02:02:49;-1.80;99.90
16929;DHT22;8581;47.334;11.190;2023-04-06T02:05:20;-1.80;99.90
16929;DHT22;8581;47.334;11.190;2023-04-06T02:07:52;-1.80;99.90
16929;DHT22;8581;47.334;11.190;2023-04-06T02:10:24;-1.70;99.90
16929;DHT22;8581;47.334;11.190;2023-04-06T02:12:55;-1.70;99.90
16929;DHT22;8581;47.334;11.190;2023-04-06T02:15:27;-1.60;99.90
16929;DHT22;8581;47.334;11.190;2023-04-06T02:17:59;-1.60;99.90
16929;DHT22;8581;47.334;11.190;2023-04-06T02:20:30;-1.60;99.90
16929;DHT22;8581;47.334;11.190;2023-04-06T02:23:02;-1.50;99.90
16929;DHT22;8581;47.334;11.190;2023-04-06T02:25:34;-1.50;99.90
16929;DHT22;8581;47.334;11.190;2023-04-06T02:28:05;-1.40;99.90
16929;DHT22;8581;47.334;11.190;2023-04-06T02:30:37;-1.30;99.90
16929;DHT22;8581;47.334;11.190;2023-04-06T02:33:08;-1.10;99.90
16929;DHT22;8581;47.334;11.190;2023-04-06T02:35:40;-1.20;99.90
16929;DHT22;8581;47.334;11.190;2023-04-06T02:38:12;-0.90;99.90
16929;DHT22;8581;47.334;11.190;2023-04-06T02:40:43;-0.90;99.90
16929;DHT22;8581;47.334;11.190;2023-04-06T02:43:15;-1.10;99.90
16929;DHT22;8581;47.334;11.190;2023-04-06T02:45:47;-1.20;99.90
16929;DHT22;8581;47.334;11.190;2023-04-06T02:48:18;-1.20;99.90
16929;DHT22;8581;47.334;11.190;2023-04-06T02:50:50;-1.30;99.90
16929;DHT22;8581;47.334;11.190;2023-04-06T02:53:22;-1.30;99.90
16929;DHT22;8581;47.334;11.190;2023-04-06T02:55:53;-1.20;99.90
16929;DHT22;8581;47.334;11.190;2023-04-06T02:58:25;-1.20;99.90
16929;DHT22;8581;47.334;11.190;2023-04-06T03:00:57;-1.30;99.90
16929;DHT22;8581;47.334;11.190;2023-04-06T03:03:28;-1.40;99.90
16929;DHT22;8581;47.334;11.190;2023-04-06T03:06:00;-1.30;99.90
16929;DHT22;8581;47.334;11.190;2023-04-06T03:08:32;-1.40;99.90
16929;DHT22;8581;47.334;11.190;2023-04-06T03:11:03;-1.40;99.90
16929;DHT22;8581;47.334;11.190;2023-04-06T03:13:36;-1.40;99.90
16929;DHT22;8581;47.334;11.190;2023-04-06T03:16:07;-1.40;99.90
16929;DHT22;8581;47.334;11.190;2023-04-06T03:18:38;-1.50;99.90
16929;DHT22;8581;47.334;11.190;2023-04-06T03:21:10;-1.40;99.90
16929;DHT22;8581;47.334;11.190;2023-04-06T03:23:42;-1.50;99.90
16929;DHT22;8581;47.334;11.190;2023-04-06T03:26:13;-1.60;99.90
16929;DHT22;8581;47.334;11.190;2023-04-06T03:28:45;-1.70;99.90
16929;DHT22;8581;47.334;11.190;2023-04-06T03:31:16;-1.80;99.90
16929;DHT22;8581;47.334;11.190;2023-04-06T03:33:48;-1.90;99.90
16929;DHT22;8581;47.334;11.190;2023-04-06T03:36:20;-1.80;99.90
16929;DHT22;8581;47.334;11.190;2023-04-06T03:38:51;-1.90;99.90
16929;DHT22;8581;47.334;11.190;2023-04-06T03:41:23;-2.10;99.90
16929;DHT22;8581;47.334;11.190;2023-04-06T03:43:55;-2.10;99.90
16929;DHT22;8581;47.334;11.190;2023-04-06T03:46:26;-2.10;99.90
16929;DHT22;8581;47.334;11.190;2023-04-06T03:48:58;-2.10;99.90
16929;DHT22;8581;47.334;11.190;2023-04-06T03:51:30;-2.10;99.90
16929;DHT22;8581;47.334;11.190;2023-04-06T03:54:01;-2.10;99.90
16929;DHT22;8581;47.334;11.190;2023-04-06T03:56:33;-2.10;99.90
16929;DHT22;8581;47.334;11.190;2023-04-06T03:59:04;-2.20;99.90
16929;DHT22;8581;47.334;11.190;2023-04-06T04:01:36;-2.20;99.90
16929;DHT22;8581;47.334;11.190;2023-04-06T04:04:08;-2.10;99.90
16929;DHT22;8581;47.334;11.190;2023-04-06T04:06:39;-2.10;99.90
16929;DHT22;8581;47.334;11.190;2023-04-06T04:09:11;-1.90;99.90
16929;DHT22;8581;47.334;11.190;2023-04-06T04:11:43;-1.80;99.90
16929;DHT22;8581;47.334;11.190;2023-04-06T04:14:14;-1.80;99.90
16929;DHT22;8581;47.334;11.190;2023-04-06T04:16:46;-1.80;99.90
16929;DHT22;8581;47.334;11.190;2023-04-06T04:19:17;-1.70;99.90
16929;DHT22;8581;47.334;11.190;2023-04-06T04:21:49;-1.60;99.90
16929;DHT22;8581;47.334;11.190;2023-04-06T04:24:21;-1.50;99.90
16929;DHT22;8581;47.334;11.190;2023-04-06T04:26:52;-1.50;99.90
16929;DHT22;8581;47.334;11.190;2023-04-06T04:29:24;-1.60;99.90
16929;DHT22;8581;47.334;11.190;2023-04-06T04:31:56;-1.50;99.90
16929;DHT22;8581;47.334;11.190;2023-04-06T04:34:27;-1.60;99.90
16929;DHT22;8581;47.334;11.190;2023-04-06T04:36:59;-1.60;99.90
16929;DHT22;8581;47.334;11.190;2023-04-06T04:39:30;-1.40;99.90
16929;DHT22;8581;47.334;11.190;2023-04-06T04:42:02;-1.50;99.90
16929;DHT22;8581;47.334;11.190;2023-04-06T04:44:34;-1.40;99.90
16929;DHT22;8581;47.334;11.190;2023-04-06T04:47:05;-1.50;99.90
16929;DHT22;8581;47.334;11.190;2023-04-06T04:49:37;-1.30;99.90
16929;DHT22;8581;47.334;11.190;2023-04-06T04:52:09;-1.20;99.90
16929;DHT22;8581;47.334;11.190;2023-04-06T04:54:40;-1.10;99.90
16929;DHT22;8581;47.334;11.190;2023-04-06T04:57:12;-1.10;99.90
16929;DHT22;8581;47.334;11.190;2023-04-06T04:59:44;-1.10;99.90
16929;DHT22;8581;47.334;11.190;2023-04-06T05:02:15;-1.00;99.90
16929;DHT22;8581;47.334;11.190;2023-04-06T05:04:47;-1.00;99.90
16929;DHT22;8581;47.334;11.190;2023-04-06T05:07:18;-0.90;99.90
16929;DHT22;8581;47.334;11.190;2023-04-06T05:09:50;-1.00;99.90
16929;DHT22;8581;47.334;11.190;2023-04-06T05:12:22;-0.90;99.90
16929;DHT22;8581;47.334;11.190;2023-04-06T05:14:53;-0.90;99.90
16929;DHT22;8581;47.334;11.190;2023-04-06T05:17:25;-0.70;99.90
16929;DHT22;8581;47.334;11.190;2023-04-06T05:19:58;-0.70;99.90
16929;DHT22;8581;47.334;11.190;2023-04-06T05:22:34;-0.80;99.90
16929;DHT22;8581;47.334;11.190;2023-04-06T05:25:06;-0.80;99.90
16929;DHT22;8581;47.334;11.190;2023-04-06T05:27:38;-0.80;99.90
16929;DHT22;8581;47.334;11.190;2023-04-06T05:30:11;-0.70;99.90
16929;DHT22;8581;47.334;11.190;2023-04-06T05:32:42;-0.50;99.90
16929;DHT22;8581;47.334;11.190;2023-04-06T05:35:15;-0.50;99.90
16929;DHT22;8581;47.334;11.190;2023-04-06T05:37:47;-0.60;99.90
16929;DHT22;8581;47.334;11.190;2023-04-06T05:40:18;-0.70;99.90
16929;DHT22;8581;47.334;11.190;2023-04-06T05:42:50;-0.60;99.90
16929;DHT22;8581;47.334;11.190;2023-04-06T05:45:22;-0.50;99.90
16929;DHT22;8581;47.334;11.190;2023-04-06T05:47:53;-0.50;99.90
16929;DHT22;8581;47.334;11.190;2023-04-06T05:50:25;-0.50;99.90
16929;DHT22;8581;47.334;11.190;2023-04-06T05:52:57;-0.50;99.90
16929;DHT22;8581;47.334;11.190;2023-04-06T05:55:28;-0.40;99.90
16929;DHT22;8581;47.334;11.190;2023-04-06T05:58:00;-0.40;99.90
16929;DHT22;8581;47.334;11.190;2023-04-06T06:00:32;-0.40;99.90
16929;DHT22;8581;47.334;11.190;2023-04-06T06:03:03;-0.30;99.90
16929;DHT22;8581;47.334;11.190;2023-04-06T06:05:35;-0.20;99.90
16929;DHT22;8581;47.334;11.190;2023-04-06T06:08:07;-0.10;99.90
16929;DHT22;8581;47.334;11.190;2023-04-06T06:10:38;-0.30;99.90
16929;DHT22;8581;47.334;11.190;2023-04-06T06:13:10;-0.50;99.90
16929;DHT22;8581;47.334;11.190;2023-04-06T06:15:42;-0.50;99.90
16929;DHT22;8581;47.334;11.190;2023-04-06T06:18:13;-0.60;99.90
16929;DHT22;8581;47.334;11.190;2023-04-06T06:20:45;-0.70;99.90
16929;DHT22;8581;47.334;11.190;2023-04-06T06:23:17;-0.70;99.90
16929;DHT22;8581;47.334;11.190;2023-04-06T06:25:48;-0.60;99.90
16929;DHT22;8581;47.334;11.190;2023-04-06T06:28:20;-0.60;99.90
16929;DHT22;8581;47.334;11.190;2023-04-06T06:30:51;-0.60;99.90
16929;DHT22;8581;47.334;11.190;2023-04-06T06:33:23;-0.60;99.90
16929;DHT22;8581;47.334;11.190;2023-04-06T06:35:55;-0.50;99.90
16929;DHT22;8581;47.334;11.190;2023-04-06T06:38:26;-0.60;99.90
16929;DHT22;8581;47.334;11.190;2023-04-06T06:40:58;-0.50;99.90
16929;DHT22;8581;47.334;11.190;2023-04-06T06:43:30;-0.40;99.90
16929;DHT22;8581;47.334;11.190;2023-04-06T06:46:02;-0.30;99.90
16929;DHT22;8581;47.334;11.190;2023-04-06T06:48:33;-0.10;99.90
16929;DHT22;8581;47.334;11.190;2023-04-06T06:51:05;0.00;99.90
16929;DHT22;8581;47.334;11.190;2023-04-06T06:53:37;0.10;99.90
16929;DHT22;8581;47.334;11.190;2023-04-06T06:56:08;0.10;99.90
16929;DHT22;8581;47.334;11.190;2023-04-06T06:58:40;0.20;99.90
16929;DHT22;8581;47.334;11.190;2023-04-06T07:01:12;0.30;99.90
16929;DHT22;8581;47.334;11.190;2023-04-06T07:03:44;0.30;99.90
16929;DHT22;8581;47.334;11.190;2023-04-06T07:06:15;0.50;99.90
16929;DHT22;8581;47.334;11.190;2023-04-06T07:08:47;0.70;99.90
16929;DHT22;8581;47.334;11.190;2023-04-06T07:11:18;0.80;99.90
16929;DHT22;8581;47.334;11.190;2023-04-06T07:13:50;0.90;99.90
16929;DHT22;8581;47.334;11.190;2023-04-06T07:16:22;0.90;99.90
16929;DHT22;8581;47.334;11.190;2023-04-06T07:18:53;1.20;99.90
16929;DHT22;8581;47.334;11.190;2023-04-06T07:21:25;1.40;99.90
16929;DHT22;8581;47.334;11.190;2023-04-06T07:23:57;1.70;99.90
16929;DHT22;8581;47.334;11.190;2023-04-06T07:26:28;1.90;99.90
16929;DHT22;8581;47.334;11.190;2023-04-06T07:29:00;2.20;99.90
16929;DHT22;8581;47.334;11.190;2023-04-06T07:31:31;2.20;99.90
16929;DHT22;8581;47.334;11.190;2023-04-06T07:34:03;2.40;99.90
16929;DHT22;8581;47.334;11.190;2023-04-06T07:36:35;2.40;99.90
16929;DHT22;8581;47.334;11.190;2023-04-06T07:39:06;2.60;99.90
16929;DHT22;8581;47.334;11.190;2023-04-06T07:41:38;2.60;99.90
16929;DHT22;8581;47.334;11.190;2023-04-06T07:44:10;2.80;99.90
16929;DHT22;8581;47.334;11.190;2023-04-06T07:46:41;2.90;99.90
16929;DHT22;8581;47.334;11.190;2023-04-06T07:49:13;3.00;99.90
16929;DHT22;8581;47.334;11.190;2023-04-06T07:51:45;3.10;99.90
16929;DHT22;8581;47.334;11.190;2023-04-06T07:54:16;3.40;99.90
16929;DHT22;8581;47.334;11.190;2023-04-06T07:56:48;3.50;99.90
16929;DHT22;8581;47.334;11.190;2023-04-06T07:59:20;3.70;99.90
16929;DHT22;8581;47.334;11.190;2023-04-06T08:01:51;3.80;99.90
16929;DHT22;8581;47.334;11.190;2023-04-06T08:04:23;4.00;99.90
16929;DHT22;8581;47.334;11.190;2023-04-06T08:07:06;4.30;99.90
16929;DHT22;8581;47.334;11.190;2023-04-06T08:09:49;4.20;99.90
16929;DHT22;8581;47.334;11.190;2023-04-06T08:12:25;4.50;99.90
16929;DHT22;8581;47.334;11.190;2023-04-06T08:15:02;4.90;99.90
16929;DHT22;8581;47.334;11.190;2023-04-06T08:17:38;5.10;99.90
16929;DHT22;8581;47.334;11.190;2023-04-06T08:20:11;5.00;99.90
16929;DHT22;8581;47.334;11.190;2023-04-06T08:22:42;5.30;99.90
16929;DHT22;8581;47.334;11.190;2023-04-06T08:25:14;5.30;99.90
16929;DHT22;8581;47.334;11.190;2023-04-06T08:27:46;5.10;99.80
16929;DHT22;8581;47.334;11.190;2023-04-06T08:30:18;5.10;99.50
16929;DHT22;8581;47.334;11.190;2023-04-06T08:32:49;5.10;99.80
16929;DHT22;8581;47.334;11.190;2023-04-06T08:35:23;5.20;98.90
16929;DHT22;8581;47.334;11.190;2023-04-06T08:37:54;4.90;97.50
16929;DHT22;8581;47.334;11.190;2023-04-06T08:40:26;4.50;97.80
16929;DHT22;8581;47.334;11.190;2023-04-06T08:43:00;4.50;98.10
16929;DHT22;8581;47.334;11.190;2023-04-06T08:45:42;4.80;96.80
16929;DHT22;8581;47.334;11.190;2023-04-06T08:48:14;5.20;97.00
16929;DHT22;8581;47.334;11.190;2023-04-06T08:50:47;5.50;96.30
16929;DHT22;8581;47.334;11.190;2023-04-06T08:53:20;6.20;97.90
16929;DHT22;8581;47.334;11.190;2023-04-06T08:55:52;6.80;97.70
16929;DHT22;8581;47.334;11.190;2023-04-06T08:58:23;7.20;94.20
16929;DHT22;8581;47.334;11.190;2023-04-06T09:00:57;7.10;93.70
16929;DHT22;8581;47.334;11.190;2023-04-06T09:03:29;6.80;93.90
16929;DHT22;8581;47.334;11.190;2023-04-06T09:06:01;6.40;94.00
16929;DHT22;8581;47.334;11.190;2023-04-06T09:08:33;6.00;93.60
16929;DHT22;8581;47.334;11.190;2023-04-06T09:11:05;5.80;95.20
16929;DHT22;8581;47.334;11.190;2023-04-06T09:13:45;5.50;95.10
16929;DHT22;8581;47.334;11.190;2023-04-06T09:16:16;5.50;95.20
16929;DHT22;8581;47.334;11.190;2023-04-06T09:18:48;5.60;94.60
16929;DHT22;8581;47.334;11.190;2023-04-06T09:21:19;5.40;94.40
16929;DHT22;8581;47.334;11.190;2023-04-06T09:23:59;5.70;94.70
16929;DHT22;8581;47.334;11.190;2023-04-06T09:26:30;5.90;94.20
16929;DHT22;8581;47.334;11.190;2023-04-06T09:29:02;5.60;94.90
16929;DHT22;8581;47.334;11.190;2023-04-06T09:31:34;6.10;95.10
16929;DHT22;8581;47.334;11.190;2023-04-06T09:34:05;6.40;92.90
16929;DHT22;8581;47.334;11.190;2023-04-06T09:36:37;6.70;93.40
16929;DHT22;8581;47.334;11.190;2023-04-06T09:39:10;6.70;92.90
16929;DHT22;8581;47.334;11.190;2023-04-06T09:41:41;6.90;92.00
16929;DHT22;8581;47.334;11.190;2023-04-06T09:44:13;6.60;92.50
16929;DHT22;8581;47.334;11.190;2023-04-06T09:46:45;6.70;92.60
16929;DHT22;8581;47.334;11.190;2023-04-06T09:49:16;6.70;92.00
16929;DHT22;8581;47.334;11.190;2023-04-06T09:51:53;6.60;91.60
16929;DHT22;8581;47.334;11.190;2023-04-06T09:54:21;6.60;92.00
16929;DHT22;8581;47.334;11.190;2023-04-06T09:57:01;7.00;91.80
16929;DHT22;8581;47.334;11.190;2023-04-06T10:02:08;7.20;91.60
16929;DHT22;8581;47.334;11.190;2023-04-06T10:04:42;6.50;92.80
16929;DHT22;8581;47.334;11.190;2023-04-06T10:07:12;6.80;91.70
16929;DHT22;8581;47.334;11.190;2023-04-06T10:09:44;7.00;92.10
16929;DHT22;8581;47.334;11.190;2023-04-06T10:12:15;7.40;91.20
16929;DHT22;8581;47.334;11.190;2023-04-06T10:14:47;7.20;90.90
16929;DHT22;8581;47.334;11.190;2023-04-06T10:17:19;7.90;90.70
16929;DHT22;8581;47.334;11.190;2023-04-06T10:19:59;8.70;89.10
16929;DHT22;8581;47.334;11.190;2023-04-06T10:22:36;9.50;87.90
16929;DHT22;8581;47.334;11.190;2023-04-06T10:25:04;10.00;87.60
16929;DHT22;8581;47.334;11.190;2023-04-06T10:27:36;9.30;90.00
16929;DHT22;8581;47.334;11.190;2023-04-06T10:30:08;9.20;90.20
16929;DHT22;8581;47.334;11.190;2023-04-06T10:32:39;9.10;88.20
16929;DHT22;8581;47.334;11.190;2023-04-06T10:35:12;9.70;87.40
16929;DHT22;8581;47.334;11.190;2023-04-06T10:37:51;9.50;86.70
16929;DHT22;8581;47.334;11.190;2023-04-06T10:40:22;9.70;88.70
16929;DHT22;8581;47.334;11.190;2023-04-06T10:42:54;9.60;86.30
16929;DHT22;8581;47.334;11.190;2023-04-06T10:45:25;9.70;85.80
16929;DHT22;8581;47.334;11.190;2023-04-06T10:47:57;8.80;87.90
16929;DHT22;8581;47.334;11.190;2023-04-06T10:50:29;9.00;89.40
16929;DHT22;8581;47.334;11.190;2023-04-06T10:53:01;9.30;87.90
16929;DHT22;8581;47.334;11.190;2023-04-06T10:55:32;10.60;84.30
16929;DHT22;8581;47.334;11.190;2023-04-06T10:58:06;11.60;83.00
16929;DHT22;8581;47.334;11.190;2023-04-06T11:00:35;11.80;78.10
16929;DHT22;8581;47.334;11.190;2023-04-06T11:03:07;11.30;78.70
16929;DHT22;8581;47.334;11.190;2023-04-06T11:05:43;11.50;79.60
16929;DHT22;8581;47.334;11.190;2023-04-06T11:08:10;12.00;79.20
16929;DHT22;8581;47.334;11.190;2023-04-06T11:10:42;12.20;76.50
16929;DHT22;8581;47.334;11.190;2023-04-06T11:13:14;12.00;77.80
16929;DHT22;8581;47.334;11.190;2023-04-06T11:15:45;11.90;75.10
16929;DHT22;8581;47.334;11.190;2023-04-06T11:18:17;11.90;76.50
16929;DHT22;8581;47.334;11.190;2023-04-06T11:20:49;11.20;77.10
16929;DHT22;8581;47.334;11.190;2023-04-06T11:23:24;10.90;74.60
16929;DHT22;8581;47.334;11.190;2023-04-06T11:25:56;10.90;79.30
16929;DHT22;8581;47.334;11.190;2023-04-06T11:28:28;10.40;79.50
16929;DHT22;8581;47.334;11.190;2023-04-06T11:31:00;10.10;88.50
16929;DHT22;8581;47.334;11.190;2023-04-06T11:33:37;11.20;81.20
16929;DHT22;8581;47.334;11.190;2023-04-06T11:36:08;11.30;80.00
16929;DHT22;8581;47.334;11.190;2023-04-06T11:38:40;11.10;79.60
16929;DHT22;8581;47.334;11.190;2023-04-06T11:41:11;11.20;80.00
16929;DHT22;8581;47.334;11.190;2023-04-06T11:43:47;11.00;77.30
16929;DHT22;8581;47.334;11.190;2023-04-06T11:46:19;10.90;76.40
16929;DHT22;8581;47.334;11.190;2023-04-06T11:48:50;11.00;76.00
16929;DHT22;8581;47.334;11.190;2023-04-06T11:51:22;12.60;79.00
16929;DHT22;8581;47.334;11.190;2023-04-06T11:53:55;13.40;79.00
16929;DHT22;8581;47.334;11.190;2023-04-06T11:56:28;15.00;73.40
16929;DHT22;8581;47.334;11.190;2023-04-06T11:59:00;14.30;70.80
16929;DHT22;8581;47.334;11.190;2023-04-06T12:01:31;13.40;70.60
16929;DHT22;8581;47.334;11.190;2023-04-06T12:04:03;12.70;77.30
16929;DHT22;8581;47.334;11.190;2023-04-06T12:06:35;14.30;78.60
16929;DHT22;8581;47.334;11.190;2023-04-06T12:09:06;17.00;70.80
16929;DHT22;8581;47.334;11.190;2023-04-06T12:11:38;18.70;68.60
16929;DHT22;8581;47.334;11.190;2023-04-06T12:14:10;20.60;62.70
16929;DHT22;8581;47.334;11.190;2023-04-06T12:16:41;21.40;59.40
16929;DHT22;8581;47.334;11.190;2023-04-06T12:19:13;20.90;59.30
16929;DHT22;8581;47.334;11.190;2023-04-06T12:21:45;20.00;58.90
16929;DHT22;8581;47.334;11.190;2023-04-06T12:24:16;20.50;55.30
16929;DHT22;8581;47.334;11.190;2023-04-06T12:26:48;16.50;60.40
16929;DHT22;8581;47.334;11.190;2023-04-06T12:29:19;15.40;63.10
16929;DHT22;8581;47.334;11.190;2023-04-06T12:31:51;14.50;64.90
16929;DHT22;8581;47.334;11.190;2023-04-06T12:34:23;15.40;64.40
16929;DHT22;8581;47.334;11.190;2023-04-06T12:36:54;17.50;61.30
16929;DHT22;8581;47.334;11.190;2023-04-06T12:39:27;19.70;60.50
16929;DHT22;8581;47.334;11.190;2023-04-06T12:41:59;21.00;58.90
16929;DHT22;8581;47.334;11.190;2023-04-06T12:44:30;20.90;60.10
16929;DHT22;8581;47.334;11.190;2023-04-06T12:47:02;21.70;56.20
16929;DHT22;8581;47.334;11.190;2023-04-06T12:49:34;20.50;53.60
16929;DHT22;8581;47.334;11.190;2023-04-06T12:52:05;18.30;57.00
16929;DHT22;8581;47.334;11.190;2023-04-06T12:54:37;17.70;56.60
16929;DHT22;8581;47.334;11.190;2023-04-06T12:57:09;18.90;55.50
16929;DHT22;8581;47.334;11.190;2023-04-06T12:59:43;18.30;55.60
16929;DHT22;8581;47.334;11.190;2023-04-06T13:02:13;18.30;55.00
16929;DHT22;8581;47.334;11.190;2023-04-06T13:04:44;20.10;57.50
16929;DHT22;8581;47.334;11.190;2023-04-06T13:07:16;22.10;55.50
16929;DHT22;8581;47.334;11.190;2023-04-06T13:09:47;23.90;53.20
16929;DHT22;8581;47.334;11.190;2023-04-06T13:12:19;23.80;52.10
16929;DHT22;8581;47.334;11.190;2023-04-06T13:14:51;21.00;51.60
16929;DHT22;8581;47.334;11.190;2023-04-06T13:17:26;18.80;54.10
16929;DHT22;8581;47.334;11.190;2023-04-06T13:19:57;16.20;55.80
16929;DHT22;8581;47.334;11.190;2023-04-06T13:22:28;14.50;59.30
16929;DHT22;8581;47.334;11.190;2023-04-06T13:25:00;13.00;63.20
16929;DHT22;8581;47.334;11.190;2023-04-06T13:27:32;12.40;61.30
16929;DHT22;8581;47.334;11.190;2023-04-06T13:30:04;12.80;62.20
16929;DHT22;8581;47.334;11.190;2023-04-06T13:32:35;13.70;60.80
16929;DHT22;8581;47.334;11.190;2023-04-06T13:35:07;16.20;56.80
16929;DHT22;8581;47.334;11.190;2023-04-06T13:37:39;17.30;54.30
16929;DHT22;8581;47.334;11.190;2023-04-06T13:40:11;19.20;52.50
16929;DHT22;8581;47.334;11.190;2023-04-06T13:42:43;19.70;52.40
16929;DHT22;8581;47.334;11.190;2023-04-06T13:45:14;17.90;55.40
16929;DHT22;8581;47.334;11.190;2023-04-06T13:47:46;16.00;57.40
16929;DHT22;8581;47.334;11.190;2023-04-06T13:50:18;14.10;59.50
16929;DHT22;8581;47.334;11.190;2023-04-06T13:52:49;13.10;63.10
16929;DHT22;8581;47.334;11.190;2023-04-06T13:55:21;12.60;64.20
16929;DHT22;8581;47.334;11.190;2023-04-06T13:57:52;12.50;64.10
16929;DHT22;8581;47.334;11.190;2023-04-06T14:00:24;12.70;64.20
16929;DHT22;8581;47.334;11.190;2023-04-06T14:02:56;13.60;64.30
16929;DHT22;8581;47.334;11.190;2023-04-06T14:05:31;15.40;62.20
16929;DHT22;8581;47.334;11.190;2023-04-06T14:08:02;16.00;59.70
16929;DHT22;8581;47.334;11.190;2023-04-06T14:10:37;15.30;60.50
16929;DHT22;8581;47.334;11.190;2023-04-06T14:13:08;13.80;62.20
16929;DHT22;8581;47.334;11.190;2023-04-06T14:15:39;13.50;61.50
16929;DHT22;8581;47.334;11.190;2023-04-06T14:18:11;12.40;65.20
16929;DHT22;8581;47.334;11.190;2023-04-06T14:20:43;11.80;67.40
16929;DHT22;8581;47.334;11.190;2023-04-06T14:23:14;11.20;67.20
16929;DHT22;8581;47.334;11.190;2023-04-06T14:25:46;10.90;68.00
16929;DHT22;8581;47.334;11.190;2023-04-06T14:28:17;10.80;69.00
16929;DHT22;8581;47.334;11.190;2023-04-06T14:30:49;11.80;66.90
16929;DHT22;8581;47.334;11.190;2023-04-06T14:33:21;12.50;65.00
16929;DHT22;8581;47.334;11.190;2023-04-06T14:35:52;12.50;64.60
16929;DHT22;8581;47.334;11.190;2023-04-06T14:38:24;11.20;66.60
16929;DHT22;8581;47.334;11.190;2023-04-06T14:40:55;10.30;66.70
16929;DHT22;8581;47.334;11.190;2023-04-06T14:43:27;10.90;65.80
16929;DHT22;8581;47.334;11.190;2023-04-06T14:46:00;12.80;63.20
16929;DHT22;8581;47.334;11.190;2023-04-06T14:48:31;15.60;64.50
16929;DHT22;8581;47.334;11.190;2023-04-06T14:51:03;19.00;58.80
16929;DHT22;8581;47.334;11.190;2023-04-06T14:53:34;17.50;55.90
16929;DHT22;8581;47.334;11.190;2023-04-06T14:56:06;15.30;58.50
16929;DHT22;8581;47.334;11.190;2023-04-06T14:58:38;13.30;63.60
16929;DHT22;8581;47.334;11.190;2023-04-06T15:01:09;12.50;64.10
16929;DHT22;8581;47.334;11.190;2023-04-06T15:03:41;12.00;64.60
16929;DHT22;8581;47.334;11.190;2023-04-06T15:06:13;11.00;68.90
16929;DHT22;8581;47.334;11.190;2023-04-06T15:08:44;11.40;67.20
16929;DHT22;8581;47.334;11.190;2023-04-06T15:11:16;11.50;65.80
16929;DHT22;8581;47.334;11.190;2023-04-06T15:13:47;11.20;65.10
16929;DHT22;8581;47.334;11.190;2023-04-06T15:16:19;10.90;66.10
16929;DHT22;8581;47.334;11.190;2023-04-06T15:18:51;11.20;68.30
16929;DHT22;8581;47.334;11.190;2023-04-06T15:21:22;12.20;66.30
16929;DHT22;8581;47.334;11.190;2023-04-06T15:23:54;12.60;66.10
16929;DHT22;8581;47.334;11.190;2023-04-06T15:26:25;13.10;65.00
16929;DHT22;8581;47.334;11.190;2023-04-06T15:28:57;16.10;63.40
16929;DHT22;8581;47.334;11.190;2023-04-06T15:31:29;17.10;58.50
16929;DHT22;8581;47.334;11.190;2023-04-06T15:34:00;16.80;60.00
16929;DHT22;8581;47.334;11.190;2023-04-06T15:36:32;17.20;60.90
16929;DHT22;8581;47.334;11.190;2023-04-06T15:39:03;17.80;57.90
16929;DHT22;8581;47.334;11.190;2023-04-06T15:41:35;18.40;58.90
16929;DHT22;8581;47.334;11.190;2023-04-06T15:44:07;19.70;55.80
16929;DHT22;8581;47.334;11.190;2023-04-06T15:46:38;20.10;55.70
16929;DHT22;8581;47.334;11.190;2023-04-06T15:49:10;18.80;54.60
16929;DHT22;8581;47.334;11.190;2023-04-06T15:51:41;19.10;54.10
16929;DHT22;8581;47.334;11.190;2023-04-06T15:54:15;18.60;55.60
16929;DHT22;8581;47.334;11.190;2023-04-06T15:56:48;18.90;54.60
16929;DHT22;8581;47.334;11.190;2023-04-06T15:59:19;17.50;56.30
16929;DHT22;8581;47.334;11.190;2023-04-06T16:02:01;17.70;55.40
16929;DHT22;8581;47.334;11.190;2023-04-06T16:04:33;16.70;55.60
16929;DHT22;8581;47.334;11.190;2023-04-06T16:07:05;17.60;57.30